Time;durP1;ratioP1;P1;durP2;ratioP2;P2;SDS_P1;SDS_P2;PMS_P1;PMS_P2;Temp;Humidity;BMP_temperature;BMP_pressure;BME280_temperature;BME280_humidity;BME280_pressure;Samples;Min_cycle;Max_cycle;Signal;HPM_P1;HPM_P2
2022/02/08 00:00:49;;;;;;;;;8.75;7.00;;;;;10.08;58.51;102972.06;5007047;28;45663;-64
2022/02/08 00:03:18;;;;;;;;;8.00;4.50;;;;;10.09;57.97;102965.03;5007116;28;45334;-64
2022/02/08 00:05:53;;;;;;;;;10.75;8.00;;;;;10.07;58.12;102959.78;5000452;28;45359;-65
2022/02/08 00:08:19;;;;;;;;;7.50;4.00;;;;;10.07;58.14;102964.19;5000406;28;45600;-71
2022/02/08 00:10:44;;;;;;;;;12.25;5.50;;;;;10.07;58.37;102967.69;5012234;28;46759;-65
2022/02/08 00:13:10;;;;;;;;;7.50;4.25;;;;;10.07;58.36;102958.94;5000179;28;45480;-65
2022/02/08 00:15:35;;;;;;;;;7.00;7.00;;;;;10.08;58.62;102963.28;5000773;28;45475;-65
2022/02/08 00:18:01;;;;;;;;;9.00;6.25;;;;;10.10;58.83;102964.13;5006314;28;45236;-65
2022/02/08 00:20:26;;;;;;;;;9.25;7.00;;;;;10.13;58.95;102961.44;5019957;28;45420;-65
2022/02/08 00:22:51;;;;;;;;;7.00;6.25;;;;;10.14;58.80;102955.25;5020938;28;45245;-65
2022/02/08 00:25:17;;;;;;;;;7.00;6.00;;;;;10.16;58.66;102963.13;5020989;28;45414;-65
2022/02/08 00:27:42;;;;;;;;;8.25;6.75;;;;;10.13;58.50;102960.56;5020769;28;45489;-65
2022/02/08 00:30:09;;;;;;;;;6.50;4.00;;;;;10.14;58.85;102954.41;5020681;28;46687;-65
2022/02/08 00:32:34;;;;;;;;;9.75;4.75;;;;;10.13;58.98;102961.44;5020516;28;45313;-66
2022/02/08 00:35:00;;;;;;;;;3.00;3.00;;;;;10.18;58.61;102950.78;5020836;28;45399;-65
2022/02/08 00:37:26;;;;;;;;;7.00;6.25;;;;;10.19;58.62;102953.41;5020867;28;45498;-65
2022/02/08 00:39:51;;;;;;;;;6.00;4.00;;;;;10.22;58.86;102956.00;5014902;28;45623;-65
2022/02/08 00:42:18;;;;;;;;;6.75;3.25;;;;;10.21;58.89;102951.59;5000829;28;45345;-65
2022/02/08 00:44:49;;;;;;;;;7.00;5.00;;;;;10.24;58.97;102955.97;5000790;28;45369;-65
2022/02/08 00:49:44;;;;;;;;;6.25;3.75;;;;;10.24;58.92;102955.97;5007488;28;45429;-65
2022/02/08 00:52:15;;;;;;;;;7.25;4.50;;;;;10.24;59.30;102958.59;5016488;28;45198;-65
2022/02/08 00:54:46;;;;;;;;;4.00;4.00;;;;;10.23;59.57;102960.34;5011409;28;45473;-65
2022/02/08 00:57:12;;;;;;;;;4.75;4.50;;;;;10.22;59.34;102961.25;5012826;28;45290;-65
2022/02/08 00:59:38;;;;;;;;;7.25;5.00;;;;;10.26;59.68;102962.03;5011515;28;45816;-65
2022/02/08 01:02:06;;;;;;;;;6.25;2.50;;;;;10.28;59.65;102960.28;5014699;28;45249;-65
2022/02/08 01:04:33;;;;;;;;;4.00;3.75;;;;;10.28;59.68;102960.28;5022701;28;45308;-65
2022/02/08 01:07:00;;;;;;;;;6.50;3.25;;;;;10.26;59.89;102952.38;5004211;28;45412;-65
2022/02/08 01:12:10;;;;;;;;;6.00;5.25;;;;;10.24;59.80;102953.31;5003993;28;45330;-66
2022/02/08 01:14:39;;;;;;;;;5.50;4.00;;;;;10.26;59.60;102962.03;5004015;28;45273;-65
2022/02/08 01:17:07;;;;;;;;;7.50;7.00;;;;;10.28;59.68;102958.50;5003750;28;45699;-65
2022/02/08 01:19:34;;;;;;;;;4.00;3.00;;;;;10.30;59.93;102959.31;5003566;28;47111;-65
2022/02/08 01:21:59;;;;;;;;;6.75;4.00;;;;;10.32;59.60;102967.19;5003926;28;45400;-65
2022/02/08 01:24:25;;;;;;;;;7.50;4.75;;;;;10.32;59.78;102957.50;5003924;28;45282;-65
2022/02/08 01:27:00;;;;;;;;;8.00;5.00;;;;;10.34;59.34;102965.38;5011702;28;45319;-65
2022/02/08 01:40:07;;;;;;;;;3.00;3.00;;;;;10.30;60.20;102975.13;5013440;28;45917;-65
2022/02/08 01:48:04;;;;;;;;;4.50;4.00;;;;;10.32;60.18;102978.59;5023085;28;45384;-65
2022/02/08 01:50:31;;;;;;;;;6.00;4.00;;;;;10.32;60.35;102975.94;5023091;28;45249;-65
2022/02/08 01:52:56;;;;;;;;;8.00;3.25;;;;;10.33;60.42;102980.31;5017642;28;45493;-65
2022/02/08 01:55:22;;;;;;;;;9.50;4.25;;;;;10.33;60.25;102969.78;5023187;28;45379;-65
2022/02/08 01:57:48;;;;;;;;;6.00;4.00;;;;;10.34;60.15;102978.53;5023388;28;45581;-65
2022/02/08 02:00:17;;;;;;;;;3.25;3.00;;;;;10.33;60.63;102974.19;5008173;28;46500;-65
2022/02/08 02:02:42;;;;;;;;;4.00;4.00;;;;;10.32;60.31;102970.69;5022719;28;45288;-65
2022/02/08 02:05:08;;;;;;;;;7.50;5.50;;;;;10.37;60.73;102973.22;5006529;28;45229;-65
2022/02/08 02:07:35;;;;;;;;;6.00;3.00;;;;;10.36;60.72;102971.50;5002785;28;45559;-65
2022/02/08 02:10:05;;;;;;;;;7.25;4.50;;;;;10.36;60.41;102973.28;5002889;28;45484;-65
2022/02/08 02:12:30;;;;;;;;;7.50;2.00;;;;;10.35;60.43;102975.03;5003163;28;45254;-65
2022/02/08 02:14:59;;;;;;;;;7.50;5.00;;;;;10.33;60.83;102975.06;5003141;28;45285;-65
2022/02/08 02:17:25;;;;;;;;;10.00;5.00;;;;;10.33;60.45;102974.19;5002894;28;45516;-65
2022/02/08 02:19:51;;;;;;;;;8.25;3.25;;;;;10.34;61.04;102982.03;5002598;28;45316;-65
2022/02/08 02:22:17;;;;;;;;;14.00;4.00;;;;;10.36;60.98;102968.88;5002917;28;45568;-65
2022/02/08 02:24:42;;;;;;;;;3.00;3.00;;;;;10.39;61.11;102978.47;5015485;28;45355;-64
2022/02/08 02:27:10;;;;;;;;;6.50;4.00;;;;;10.37;60.59;102970.59;5003307;28;45383;-65
2022/02/08 02:29:36;;;;;;;;;6.00;4.00;;;;;10.37;61.08;102970.59;5002507;28;45907;-64
2022/02/08 02:32:02;;;;;;;;;5.50;4.00;;;;;10.39;60.80;102967.91;5002463;28;45304;-64
2022/02/08 02:34:27;;;;;;;;;4.00;3.00;;;;;10.43;60.67;102975.72;5015456;28;45305;-64
2022/02/08 02:36:54;;;;;;;;;4.50;3.00;;;;;10.46;60.64;102969.50;5002876;28;45305;-64
2022/02/08 02:39:25;;;;;;;;;6.75;4.00;;;;;10.47;60.80;102963.34;5003731;28;45473;-64
2022/02/08 02:41:52;;;;;;;;;8.50;4.00;;;;;10.47;60.77;102960.72;5002481;28;45210;-64
2022/02/08 02:44:21;;;;;;;;;7.25;4.50;;;;;10.48;60.85;102955.38;5002648;28;46500;-65
2022/02/08 02:46:47;;;;;;;;;8.00;3.00;;;;;10.48;61.22;102959.78;5002388;28;46131;-64
2022/02/08 02:49:13;;;;;;;;;4.00;2.75;;;;;10.50;61.15;102950.94;5002242;28;45314;-64
2022/02/08 02:51:39;;;;;;;;;3.75;3.75;;;;;10.51;61.22;102957.13;5002494;28;45507;-65
2022/02/08 02:54:25;;;;;;;;;4.50;4.00;;;;;10.49;60.67;102954.47;5021684;28;45381;-64
2022/02/08 02:56:51;;;;;;;;;7.00;3.50;;;;;10.49;60.97;102959.75;5022109;28;45333;-64
2022/02/08 02:59:19;;;;;;;;;8.75;4.00;;;;;10.48;60.80;102959.78;5021928;28;45301;-65
2022/02/08 03:02:13;;;;;;;;;4.00;3.50;;;;;10.48;61.02;102962.44;5021859;28;45225;-64
2022/02/08 03:04:54;;;;;;;;;10.25;6.50;;;;;10.47;61.23;102964.19;5010430;28;45314;-64
2022/02/08 03:18:35;;;;;;;;;6.50;3.25;;;;;10.48;61.21;102952.75;5021238;28;45363;-65
2022/02/08 03:21:03;;;;;;;;;6.25;4.00;;;;;10.48;61.83;102958.03;5006761;28;46941;-65
2022/02/08 03:23:28;;;;;;;;;7.50;4.00;;;;;10.46;61.98;102956.34;5013599;28;45539;-65
2022/02/08 03:25:54;;;;;;;;;3.00;3.00;;;;;10.43;61.74;102953.78;5015881;28;45258;-64
2022/02/08 03:28:20;;;;;;;;;11.50;3.75;;;;;10.43;62.16;102962.56;5022042;28;45388;-63
2022/02/08 03:30:45;;;;;;;;;3.75;3.00;;;;;10.46;62.21;102958.97;5021449;28;46170;-63
2022/02/08 03:33:11;;;;;;;;;8.00;5.00;;;;;10.49;62.09;102958.88;5021448;28;45357;-63
2022/02/08 03:35:36;;;;;;;;;6.25;5.25;;;;;10.50;62.19;102966.75;5021797;28;45182;-63
2022/02/08 03:38:05;;;;;;;;;5.25;3.00;;;;;10.55;62.36;102964.03;5015250;28;45503;-63
2022/02/08 03:40:39;;;;;;;;;6.50;2.50;;;;;10.56;62.67;102974.53;5003123;28;45420;-63
2022/02/08 03:43:49;;;;;;;;;8.00;5.00;;;;;10.53;62.20;102958.78;5001573;28;45230;-63
2022/02/08 03:45:59;;;;;;;;;5.00;3.00;;;;;10.50;62.61;102969.38;5001215;28;45260;-63
2022/02/08 03:48:26;;;;;;;;;5.75;3.00;;;;;10.49;62.94;102972.06;5001620;28;45444;-63
2022/02/08 03:51:01;;;;;;;;;7.00;4.00;;;;;10.52;62.65;102974.66;5001384;28;46185;-63
2022/02/08 03:53:27;;;;;;;;;6.50;3.00;;;;;10.53;62.84;102968.47;5015280;28;45435;-63
2022/02/08 03:55:52;;;;;;;;;6.50;4.00;;;;;10.50;62.44;102969.38;5021535;28;45593;-63
2022/02/08 03:58:18;;;;;;;;;5.00;4.25;;;;;10.49;62.61;102970.28;5021159;28;45507;-63
2022/02/08 04:01:31;;;;;;;;;9.00;4.25;;;;;10.50;63.21;102965.88;5021058;28;46254;-63
2022/02/08 04:03:32;;;;;;;;;7.00;4.00;;;;;10.48;63.23;102960.66;5017658;28;45523;-63
2022/02/08 04:05:59;;;;;;;;;4.00;4.00;;;;;10.44;63.34;102972.19;5001538;28;45202;-64
2022/02/08 04:08:28;;;;;;;;;6.75;2.75;;;;;10.41;63.37;102964.34;5001483;28;45436;-64
2022/02/08 04:10:55;;;;;;;;;4.50;4.00;;;;;10.41;63.23;102971.38;5016565;28;47684;-64
2022/02/08 04:13:26;;;;;;;;;7.75;6.25;;;;;10.41;63.51;102976.66;5001159;28;45394;-64
2022/02/08 04:16:23;;;;;;;;;9.00;4.00;;;;;10.43;63.80;102974.88;5001400;28;45284;-64
2022/02/08 04:35:10;;;;;;;;;5.00;3.00;;;;;10.39;64.05;102978.47;5020818;28;45350;-64
2022/02/08 04:45:32;;;;;;;;;3.75;3.75;;;;;10.39;64.32;102970.56;5000978;28;45452;-64
2022/02/08 04:48:05;;;;;;;;;11.00;7.00;;;;;10.40;64.13;102973.16;5000762;28;45382;-64
2022/02/08 04:50:32;;;;;;;;;7.50;6.25;;;;;10.42;63.81;102970.47;5000941;28;45222;-64
2022/02/08 04:53:05;;;;;;;;;9.25;6.25;;;;;10.42;63.76;102975.75;5010493;28;45412;-64
2022/02/08 04:55:49;;;;;;;;;7.75;7.25;;;;;10.39;63.76;102966.16;5020431;28;45388;-64
2022/02/08 05:35:57;;;;;;;;;7.00;6.00;;;;;10.41;64.51;102974.88;5019958;28;45503;-64
2022/02/08 05:44:54;;;;;;;;;7.00;4.75;;;;;10.45;64.74;102971.28;5016187;28;45567;-64
2022/02/08 05:46:54;;;;;;;;;6.25;3.00;;;;;10.44;64.82;102966.91;5022276;28;45361;-64
2022/02/08 05:49:29;;;;;;;;;8.00;6.75;;;;;10.44;65.37;102959.00;5022978;28;45413;-64
2022/02/08 05:52:09;;;;;;;;;9.25;4.50;;;;;10.46;65.68;102965.13;5017778;28;45253;-64
2022/02/08 05:54:35;;;;;;;;;4.50;3.75;;;;;10.42;65.60;102957.28;5023299;28;45313;-64
2022/02/08 05:57:01;;;;;;;;;5.25;4.00;;;;;10.38;65.64;102961.78;5022933;28;46171;-64
2022/02/08 05:59:26;;;;;;;;;7.00;6.00;;;;;10.39;65.82;102957.38;5023128;28;45466;-64
2022/02/08 06:01:52;;;;;;;;;7.00;4.00;;;;;10.37;66.01;102949.53;5021361;28;45314;-65
2022/02/08 06:04:17;;;;;;;;;4.25;3.00;;;;;10.37;66.01;102949.53;5013039;28;45336;-64
2022/02/08 06:06:43;;;;;;;;;4.75;4.75;;;;;10.36;66.60;102950.44;5002915;28;46559;-65
2022/02/08 06:09:09;;;;;;;;;4.00;4.00;;;;;10.38;66.71;102948.63;5002795;28;45321;-64
2022/02/08 06:11:37;;;;;;;;;8.50;4.00;;;;;10.39;66.78;102947.72;5005933;28;45370;-64
2022/02/08 06:14:04;;;;;;;;;4.25;3.50;;;;;10.42;66.47;102947.63;5003008;28;45266;-64
2022/02/08 06:16:30;;;;;;;;;10.50;4.00;;;;;10.46;66.74;102946.66;5002463;28;45440;-64
2022/02/08 06:18:55;;;;;;;;;5.00;4.00;;;;;10.51;66.59;102949.22;5002823;28;45534;-64
2022/02/08 06:21:21;;;;;;;;;4.50;3.75;;;;;10.51;66.93;102941.31;5002831;28;45315;-65
2022/02/08 06:23:47;;;;;;;;;3.50;3.00;;;;;10.53;66.52;102945.63;5003045;28;45325;-64
2022/02/08 06:26:14;;;;;;;;;8.25;3.50;;;;;10.52;67.29;102948.31;5002455;28;45960;-64
2022/02/08 06:28:40;;;;;;;;;4.75;1.50;;;;;10.54;67.43;102946.47;5002727;28;45424;-63
2022/02/08 06:31:05;;;;;;;;;3.00;3.00;;;;;10.56;67.43;102949.94;5016818;28;45409;-63
2022/02/08 06:33:31;;;;;;;;;2.75;2.75;;;;;10.53;67.36;102953.53;5013331;28;45316;-63
2022/02/08 06:35:56;;;;;;;;;2.75;2.75;;;;;10.55;67.85;102959.63;5018915;28;46107;-63
2022/02/08 06:38:22;;;;;;;;;4.75;3.00;;;;;10.56;67.82;102963.97;5010147;28;45281;-63
2022/02/08 06:40:51;;;;;;;;;3.25;3.25;;;;;10.59;68.22;102965.69;5007350;28;45411;-63
2022/02/08 06:43:19;;;;;;;;;5.25;3.00;;;;;10.64;67.76;102966.44;5009363;28;45383;-63
2022/02/08 06:45:44;;;;;;;;;4.75;2.00;;;;;10.66;68.54;102966.41;5015546;28;46269;-65
2022/02/08 06:48:11;;;;;;;;;6.25;3.00;;;;;10.66;68.51;102969.03;5007651;28;45439;-65
2022/02/08 06:50:37;;;;;;;;;5.50;3.00;;;;;10.66;67.99;102972.53;5014259;28;45320;-65
2022/02/08 06:53:04;;;;;;;;;6.00;3.00;;;;;10.68;68.50;102972.53;5013841;28;45490;-66
2022/02/08 06:55:29;;;;;;;;;5.00;2.00;;;;;10.70;68.39;102975.97;5020076;28;45361;-63
2022/02/08 06:58:04;;;;;;;;;7.25;4.00;;;;;10.72;68.17;102979.44;5012799;28;45226;-62
2022/02/08 07:00:35;;;;;;;;;5.75;3.75;;;;;10.73;68.70;102982.03;5020960;28;45280;-65
2022/02/08 07:03:18;;;;;;;;;4.75;3.00;;;;;10.76;68.60;102983.75;5009101;28;45313;-63
2022/02/08 07:05:44;;;;;;;;;3.00;3.00;;;;;10.76;68.04;102983.75;5004101;28;45396;-63
2022/02/08 07:08:10;;;;;;;;;9.50;6.00;;;;;10.79;68.49;102983.66;5002104;28;45388;-65
2022/02/08 07:10:38;;;;;;;;;5.50;3.75;;;;;10.79;68.38;102978.38;5018030;28;45385;-62
2022/02/08 07:13:06;;;;;;;;;5.50;3.75;;;;;10.80;68.52;102988.88;5010270;28;45578;-63
2022/02/08 07:15:32;;;;;;;;;4.00;4.00;;;;;10.81;68.54;102987.97;5001120;28;46138;-65
2022/02/08 07:17:59;;;;;;;;;2.00;2.00;;;;;10.82;68.29;102988.84;5000858;28;45502;-65
2022/02/08 07:20:24;;;;;;;;;5.25;3.00;;;;;10.78;68.28;102992.47;5001561;28;45702;-63
2022/02/08 07:22:50;;;;;;;;;3.25;2.50;;;;;10.83;68.69;102999.38;5000094;28;45499;-63
2022/02/08 07:25:15;;;;;;;;;2.75;2.75;;;;;10.83;68.41;103004.66;5015632;28;45804;-64
2022/02/08 07:27:41;;;;;;;;;6.25;3.75;;;;;10.85;68.47;103008.09;5010902;28;45423;-63
2022/02/08 07:30:10;;;;;;;;;4.25;4.25;;;;;10.86;68.47;103020.38;5002750;28;45361;-63
2022/02/08 07:32:38;;;;;;;;;4.75;4.00;;;;;10.86;68.46;103014.25;5016545;28;45367;-63
2022/02/08 07:40:43;;;;;;;;;6.50;3.25;;;;;10.88;68.05;103015.06;5005057;28;45448;-63
2022/02/08 07:43:09;;;;;;;;;4.25;3.00;;;;;10.93;68.34;103020.25;5011821;28;45646;-64
2022/02/08 07:45:34;;;;;;;;;3.25;3.25;;;;;10.94;67.96;103017.56;5008113;28;46124;-64
2022/02/08 07:48:00;;;;;;;;;4.00;4.00;;;;;10.97;67.98;103014.84;5003702;28;45385;-64
2022/02/08 07:50:26;;;;;;;;;4.00;4.00;;;;;10.99;68.00;103009.56;5000882;28;45322;-64
2022/02/08 07:52:53;;;;;;;;;7.00;4.00;;;;;11.03;67.88;103003.28;5008259;28;45213;-63
2022/02/08 07:55:22;;;;;;;;;4.50;3.50;;;;;11.08;68.13;102998.78;5011965;28;45513;-64
2022/02/08 07:57:48;;;;;;;;;6.50;4.00;;;;;11.11;67.96;103003.97;5011277;28;45336;-64
2022/02/08 08:00:14;;;;;;;;;3.50;3.25;;;;;11.13;67.87;103007.41;5011899;28;45375;-64
2022/02/08 08:02:40;;;;;;;;;8.00;4.00;;;;;11.18;68.21;103001.13;5010692;28;45478;-64
2022/02/08 08:05:07;;;;;;;;;8.00;4.00;;;;;11.22;67.79;103007.22;5009532;28;45433;-64
2022/02/08 08:07:34;;;;;;;;;8.00;3.50;;;;;11.24;67.92;102997.47;5009609;28;45334;-64
2022/02/08 08:10:03;;;;;;;;;7.00;3.75;;;;;11.26;68.04;102995.66;5009296;28;45960;-64
2022/02/08 08:12:29;;;;;;;;;6.25;4.00;;;;;11.28;67.96;102999.09;5009114;28;45472;-64
2022/02/08 08:14:58;;;;;;;;;3.00;3.00;;;;;11.30;67.73;102994.69;5009164;28;45417;-64
2022/02/08 08:19:56;;;;;;;;;8.50;4.00;;;;;11.36;67.44;103002.41;5010719;28;45352;-64
2022/02/08 08:22:21;;;;;;;;;8.00;4.25;;;;;11.37;67.38;103005.91;5007845;28;45492;-65
2022/02/08 08:24:47;;;;;;;;;4.00;4.00;;;;;11.38;67.48;102997.13;5012670;28;46111;-65
2022/02/08 08:27:14;;;;;;;;;6.50;4.00;;;;;11.41;67.68;102997.88;5009906;28;45150;-64
2022/02/08 08:29:43;;;;;;;;;9.50;3.25;;;;;11.40;67.78;102993.53;5010099;28;45488;-64
2022/02/08 08:32:08;;;;;;;;;7.00;3.25;;;;;11.39;67.42;102994.44;5012215;28;45441;-65
2022/02/08 08:34:36;;;;;;;;;4.25;4.25;;;;;11.42;67.55;103002.25;5011134;28;46789;-65
2022/02/08 08:37:03;;;;;;;;;5.25;4.25;;;;;11.42;67.85;103001.41;5013818;28;45329;-65
2022/02/08 08:39:39;;;;;;;;;9.00;8.25;;;;;11.43;67.47;102998.72;5012596;28;45298;-64
2022/02/08 08:42:21;;;;;;;;;8.75;4.75;;;;;11.48;67.78;102995.09;5009817;28;45423;-64
2022/02/08 08:50:07;;;;;;;;;7.00;7.00;;;;;11.63;67.09;102999.97;5010624;28;45288;-65
2022/02/08 08:52:41;;;;;;;;;7.25;7.00;;;;;11.66;66.93;103006.00;5011337;28;45227;-64
2022/02/08 08:55:07;;;;;;;;;6.25;5.75;;;;;11.64;66.99;103004.31;5010605;28;45186;-64
2022/02/08 08:57:33;;;;;;;;;14.25;8.00;;;;;11.63;66.94;103005.25;5012793;28;45265;-64
2022/02/08 09:00:00;;;;;;;;;10.00;7.75;;;;;11.64;66.93;103004.31;5010820;28;45416;-64
2022/02/08 09:02:26;;;;;;;;;5.50;4.00;;;;;11.65;66.92;103001.63;5011906;28;45484;-64
2022/02/08 09:04:54;;;;;;;;;8.75;6.75;;;;;11.65;66.78;103009.56;5000436;28;45326;-64
2022/02/08 09:07:20;;;;;;;;;7.00;4.25;;;;;11.66;67.03;102999.88;5000049;28;45338;-64
2022/02/08 09:09:49;;;;;;;;;9.50;4.50;;;;;11.66;66.81;103011.28;5000504;28;45360;-64
2022/02/08 09:23:20;;;;;;;;;10.00;7.00;;;;;11.74;66.84;103000.50;5003608;28;45240;-64
2022/02/08 09:25:54;;;;;;;;;8.00;7.00;;;;;11.74;66.63;103004.03;5011262;28;45447;-64
2022/02/08 09:28:42;;;;;;;;;6.50;5.25;;;;;11.76;66.91;102998.69;5006744;28;45268;-64
2022/02/08 09:31:11;;;;;;;;;10.50;7.00;;;;;11.81;66.34;103002.09;5015263;28;45483;-63
2022/02/08 09:33:37;;;;;;;;;11.75;8.00;;;;;11.81;66.76;103002.09;5016685;28;45454;-71
2022/02/08 09:36:02;;;;;;;;;9.50;7.75;;;;;11.82;66.47;103000.34;5015232;28;45572;-64
2022/02/08 09:38:30;;;;;;;;;8.00;8.00;;;;;11.86;66.29;103005.50;5003237;28;45452;-68
2022/02/08 09:40:59;;;;;;;;;8.75;8.00;;;;;11.87;66.45;103004.59;5007371;28;45305;-67
2022/02/08 09:43:26;;;;;;;;;10.50;9.75;;;;;11.88;65.99;103008.09;5022742;28;45276;-67
2022/02/08 09:45:51;;;;;;;;;7.25;7.25;;;;;11.90;66.31;103001.84;5023073;28;45338;-67
2022/02/08 09:48:29;;;;;;;;;10.00;8.00;;;;;11.92;66.15;103002.66;5023080;28;45389;-67
2022/02/08 09:50:55;;;;;;;;;10.75;9.75;;;;;11.97;66.00;103005.19;5023282;28;45449;-67
2022/02/08 09:53:31;;;;;;;;;8.25;7.00;;;;;11.98;65.95;103002.50;5013302;28;45435;-67
2022/02/08 09:55:57;;;;;;;;;8.00;7.75;;;;;12.01;65.78;103005.06;5003098;28;46050;-67
2022/02/08 09:58:23;;;;;;;;;8.50;6.50;;;;;12.07;66.03;103000.50;5002989;28;45263;-67
2022/02/08 10:00:48;;;;;;;;;10.50;8.50;;;;;12.11;65.62;103007.44;5003155;28;45341;-67
2022/02/08 10:03:17;;;;;;;;;9.00;7.75;;;;;12.13;65.46;103006.47;5002994;28;45538;-67
2022/02/08 10:05:54;;;;;;;;;15.00;8.25;;;;;12.12;65.53;103004.72;5002780;28;45448;-67
2022/02/08 10:08:21;;;;;;;;;10.00;8.00;;;;;12.12;65.40;102999.44;5002883;28;45452;-67
2022/02/08 10:10:47;;;;;;;;;9.50;8.50;;;;;12.16;65.69;103001.06;5021151;28;45530;-66
2022/02/08 10:24:05;;;;;;;;;10.75;7.50;;;;;12.33;65.20;103007.66;5002779;28;45249;-66
2022/02/08 10:27:15;;;;;;;;;9.00;8.00;;;;;12.32;65.04;103008.53;5002439;28;47044;-66
2022/02/08 10:40:17;;;;;;;;;8.00;7.00;;;;;12.52;64.86;103004.38;5013985;28;45175;-66
2022/02/08 10:42:50;;;;;;;;;5.50;5.00;;;;;12.58;64.78;103011.28;5018039;28;45253;-67
2022/02/08 10:45:18;;;;;;;;;8.25;7.25;;;;;12.59;64.53;103007.72;5022692;28;45345;-66
2022/02/08 10:47:48;;;;;;;;;11.00;8.25;;;;;12.64;64.55;103004.91;5021921;28;46174;-67
2022/02/08 10:50:14;;;;;;;;;9.50;8.25;;;;;12.64;64.58;103005.78;5022269;28;45264;-66
2022/02/08 10:52:43;;;;;;;;;6.25;6.25;;;;;12.65;64.61;103006.66;5018370;28;45313;-66
2022/02/08 10:55:22;;;;;;;;;8.75;6.00;;;;;12.76;64.42;103008.03;5002324;28;45507;-66
2022/02/08 10:58:05;;;;;;;;;10.50;8.25;;;;;12.84;64.55;103011.28;5002005;28;45580;-67
2022/02/08 11:00:40;;;;;;;;;10.25;7.00;;;;;12.86;64.16;103006.81;5001959;28;45428;-67
2022/02/08 11:03:13;;;;;;;;;9.00;8.00;;;;;12.93;64.47;103007.47;5001982;28;45277;-66
2022/02/08 11:05:50;;;;;;;;;9.50;7.25;;;;;13.00;64.11;103010.78;5002169;28;45534;-68
2022/02/08 11:09:06;;;;;;;;;8.50;7.00;;;;;13.01;63.98;103004.59;5002067;28;45312;-66
2022/02/08 11:12:06;;;;;;;;;11.00;7.75;;;;;13.02;63.71;102998.38;5010669;28;45313;-67
2022/02/08 11:14:25;;;;;;;;;12.50;8.00;;;;;13.05;64.02;102995.63;5017994;28;45323;-67
2022/02/08 11:22:41;;;;;;;;;8.50;8.25;;;;;13.29;63.46;102988.69;5021780;28;45372;-68
2022/02/08 11:27:56;;;;;;;;;6.00;4.25;;;;;13.38;63.18;102981.28;5021516;28;45272;-67
2022/02/08 11:30:51;;;;;;;;;8.25;6.25;;;;;13.36;63.35;102991.06;5021737;28;45406;-68
2022/02/08 11:33:33;;;;;;;;;14.00;8.00;;;;;13.36;63.29;102983.13;5021290;28;45362;-67
2022/02/08 11:53:45;;;;;;;;;9.00;8.00;;;;;13.38;63.28;102969.81;5013798;28;45452;-68
2022/02/08 12:01:26;;;;;;;;;9.75;9.00;;;;;13.37;63.04;102947.78;5020908;28;45397;-68
2022/02/08 12:04:18;;;;;;;;;17.00;13.00;;;;;13.44;63.05;102937.84;5006240;28;45563;-68
2022/02/08 12:09:36;;;;;;;;;9.25;9.25;;;;;13.43;63.16;102933.47;5001409;28;45495;-66
2022/02/08 12:34:05;;;;;;;;;9.25;9.00;;;;;13.47;62.46;102911.25;5020589;28;45506;-67
2022/02/08 12:50:54;;;;;;;;;5.00;4.00;;;;;13.38;61.89;102891.25;5020339;28;45348;-67
2022/02/08 12:56:22;;;;;;;;;7.00;5.50;;;;;13.47;62.14;102886.56;5004189;28;45332;-67
2022/02/08 14:01:59;;;;;;;;;5.75;4.25;;;;;13.41;61.87;102850.56;5002644;28;45388;-68
2022/02/08 14:07:23;;;;;;;;;2.50;2.50;;;;;13.47;62.09;102853.00;5003197;28;45334;-67
2022/02/08 14:10:00;;;;;;;;;4.00;4.00;;;;;13.49;62.00;102845.84;5003058;28;45258;-67
2022/02/08 14:20:44;;;;;;;;;6.75;5.25;;;;;13.51;62.13;102827.25;5022498;28;45488;-68
2022/02/08 14:23:22;;;;;;;;;7.50;5.75;;;;;13.49;61.69;102835.25;5022428;28;45685;-68
2022/02/08 14:26:00;;;;;;;;;12.75;12.00;;;;;13.51;62.03;102829.91;5022657;28;46474;-68
2022/02/08 14:34:14;;;;;;;;;9.75;6.00;;;;;13.54;61.89;102835.97;5022728;28;45328;-68
2022/02/08 14:36:58;;;;;;;;;5.25;4.50;;;;;13.47;61.94;102829.16;5022177;28;45541;-68
2022/02/08 15:07:02;;;;;;;;;8.75;8.75;;;;;13.33;62.54;102812.94;5022078;28;45218;-68
2022/02/08 15:09:32;;;;;;;;;9.50;9.50;;;;;13.30;62.53;102827.16;5021886;28;45313;-68
2022/02/08 15:14:59;;;;;;;;;5.50;5.25;;;;;13.33;62.57;102828.81;5021382;28;45391;-68
2022/02/08 15:17:25;;;;;;;;;6.00;5.25;;;;;13.30;62.66;102824.50;5021912;28;45118;-69
2022/02/08 15:19:53;;;;;;;;;8.50;8.00;;;;;13.32;62.81;102827.94;5021420;28;46117;-68
2022/02/08 15:22:19;;;;;;;;;8.50;8.00;;;;;13.30;62.63;102834.25;5021996;28;45299;-68
2022/02/08 15:24:45;;;;;;;;;10.00;5.75;;;;;13.26;62.46;102830.81;5021763;28;45317;-68
2022/02/08 15:27:12;;;;;;;;;11.75;8.25;;;;;13.24;62.67;102835.31;5021945;28;45590;-68
2022/02/08 15:29:38;;;;;;;;;6.00;6.00;;;;;13.25;62.79;102833.53;5021639;28;46140;-68
2022/02/08 15:32:07;;;;;;;;;11.00;8.25;;;;;13.23;62.76;102835.38;5021412;28;45282;-69
2022/02/08 15:34:33;;;;;;;;;8.25;7.25;;;;;13.17;62.78;102839.06;5021897;28;45439;-68
2022/02/08 15:36:58;;;;;;;;;4.75;4.75;;;;;13.12;62.66;102833.09;5022151;28;45479;-67
2022/02/08 15:39:24;;;;;;;;;8.25;5.00;;;;;13.09;62.92;102834.06;5018361;28;46208;-68
2022/02/08 15:41:50;;;;;;;;;8.00;8.00;;;;;13.07;62.98;102830.63;5008902;28;45657;-68
2022/02/08 15:44:22;;;;;;;;;8.25;8.00;;;;;13.06;63.01;102828.88;5006794;28;45317;-68
2022/02/08 15:46:51;;;;;;;;;5.25;5.00;;;;;13.00;63.01;102831.75;5016580;28;45439;-68
2022/02/08 15:49:16;;;;;;;;;7.00;7.00;;;;;12.99;63.07;102832.69;5001465;28;46131;-68
2022/02/08 15:51:45;;;;;;;;;8.25;5.25;;;;;12.96;63.04;102835.44;5008572;28;45246;-68
2022/02/08 15:54:24;;;;;;;;;6.75;5.00;;;;;12.94;62.82;102825.81;5004908;28;45424;-67
2022/02/08 15:57:07;;;;;;;;;0.00;0.00;;;;;12.91;63.05;102828.56;5001640;28;45337;-68
2022/02/08 16:05:14;;;;;;;;;9.00;6.00;;;;;12.84;63.12;102820.00;5021357;28;45359;-68
2022/02/08 16:07:55;;;;;;;;;6.25;4.50;;;;;12.80;63.31;102823.69;5012227;28;45312;-68
2022/02/08 16:10:36;;;;;;;;;6.25;5.50;;;;;12.75;63.61;102825.59;5029261;28;46795;-68
2022/02/08 16:13:25;;;;;;;;;6.00;6.00;;;;;12.74;63.53;102826.53;5001280;28;45456;-68
2022/02/08 16:18:46;;;;;;;;;6.25;6.25;;;;;12.68;64.12;102826.75;5021131;28;45394;-68
2022/02/08 16:22:13;;;;;;;;;8.25;8.00;;;;;12.67;63.72;102827.66;5020889;28;45480;-68
2022/02/08 16:29:15;;;;;;;;;8.75;8.00;;;;;12.63;64.00;102833.94;5021080;28;45230;-68
2022/02/08 16:32:03;;;;;;;;;10.00;10.00;;;;;12.65;64.12;102838.28;5020553;28;45628;-68
2022/02/08 16:55:54;;;;;;;;;10.00;9.00;;;;;12.51;64.55;102833.47;5000549;28;45327;-65
2022/02/08 16:58:35;;;;;;;;;14.00;10.00;;;;;12.49;64.65;102834.44;5000992;28;45297;-63
2022/02/08 17:01:09;;;;;;;;;11.00;9.00;;;;;12.48;64.53;102833.59;5000429;28;45353;-63
2022/02/08 17:03:40;;;;;;;;;9.50;7.50;;;;;12.48;64.68;102838.88;5000568;28;45594;-62
2022/02/08 17:06:06;;;;;;;;;10.75;10.75;;;;;12.47;64.69;102830.97;5000896;28;45368;-65
2022/02/08 17:08:31;;;;;;;;;18.25;11.50;;;;;12.42;64.75;102820.56;5000795;28;45605;-67
2022/02/08 17:10:59;;;;;;;;;14.50;12.00;;;;;12.44;64.67;102831.09;5000703;28;45662;-63
2022/02/08 17:16:39;;;;;;;;;10.50;9.75;;;;;12.43;64.93;102834.66;4999893;28;45404;-69
2022/02/08 17:46:16;;;;;;;;;11.75;11.25;;;;;12.35;65.62;102820.81;5023050;28;45458;-64
2022/02/08 17:48:41;;;;;;;;;16.75;15.25;;;;;12.37;65.24;102832.19;5023145;28;45516;-64
2022/02/08 17:51:07;;;;;;;;;12.75;12.00;;;;;12.37;65.24;102834.84;5023052;28;45233;-65
2022/02/08 17:53:32;;;;;;;;;14.25;11.50;;;;;12.38;65.48;102842.72;5012421;28;45642;-65
2022/02/08 17:55:58;;;;;;;;;20.25;15.00;;;;;12.38;65.50;102840.06;5002815;28;45393;-65
2022/02/08 17:58:23;;;;;;;;;15.50;15.50;;;;;12.41;65.53;102840.00;5009210;28;45483;-65
2022/02/08 18:00:53;;;;;;;;;15.00;12.25;;;;;12.41;65.27;102836.50;5002803;28;45344;-64
2022/02/08 18:03:18;;;;;;;;;17.00;12.50;;;;;12.42;65.40;102846.13;5003337;28;45499;-64
2022/02/08 18:05:44;;;;;;;;;18.25;12.50;;;;;12.40;65.27;102838.25;5002853;28;46315;-65
2022/02/08 18:08:13;;;;;;;;;16.50;13.25;;;;;12.41;65.52;102840.00;5003183;28;45604;-65
2022/02/08 18:10:39;;;;;;;;;16.00;15.25;;;;;12.44;65.33;102841.66;5002835;28;45214;-65